Time;durP1;ratioP1;P1;durP2;ratioP2;P2;SDS_P1;SDS_P2;PMS_P1;PMS_P2;Temp;Humidity;BMP_temperature;BMP_pressure;BME280_temperature;BME280_humidity;BME280_pressure;Samples;Min_cycle;Max_cycle;Signal;HPM_P1;HPM_P2
2022/05/28 00:02:31;;;;;;;1.63;0.57;;;;;;;;;;5085178;28;20250;-58
2022/05/28 00:05:18;;;;;;;0.40;0.40;;;;;;;;;;5087741;28;20689;-58
2022/05/28 00:08:07;;;;;;;0.50;0.50;;;;;;;;;;5088562;28;20293;-58
2022/05/28 00:10:58;;;;;;;1.63;0.60;;;;;;;;;;5081905;28;20293;-58
2022/05/28 00:13:45;;;;;;;0.70;0.70;;;;;;;;;;5089896;28;20204;-57
2022/05/28 00:16:33;;;;;;;0.40;0.40;;;;;;;;;;5086881;28;20248;-57
2022/05/28 00:19:20;;;;;;;0.70;0.70;;;;;;;;;;5088422;28;20287;-57
2022/05/28 00:22:07;;;;;;;0.53;0.50;;;;;;;;;;5090570;28;20278;-58
2022/05/28 00:24:56;;;;;;;0.70;0.50;;;;;;;;;;5084093;28;20213;-57
2022/05/28 00:27:43;;;;;;;0.50;0.50;;;;;;;;;;5083633;28;20271;-57
2022/05/28 00:30:30;;;;;;;0.60;0.60;;;;;;;;;;5092433;28;20290;-58
2022/05/28 00:33:17;;;;;;;0.40;0.40;;;;;;;;;;5089427;28;20289;-57
2022/05/28 00:36:08;;;;;;;0.40;0.40;;;;;;;;;;5087424;28;20255;-57
2022/05/28 00:38:55;;;;;;;0.40;0.40;;;;;;;;;;5086061;28;20209;-58
2022/05/28 00:41:43;;;;;;;0.37;0.37;;;;;;;;;;5087174;28;20284;-58
2022/05/28 00:44:30;;;;;;;0.60;0.43;;;;;;;;;;5085020;28;20315;-58
2022/05/28 00:47:18;;;;;;;0.33;0.33;;;;;;;;;;5088816;28;20261;-58
2022/05/28 00:50:06;;;;;;;0.30;0.30;;;;;;;;;;5088273;28;20304;-57
2022/05/28 00:52:54;;;;;;;0.50;0.50;;;;;;;;;;5085086;28;20353;-57
2022/05/28 00:55:41;;;;;;;0.20;0.20;;;;;;;;;;5089825;28;20293;-58
2022/05/28 00:58:30;;;;;;;0.50;0.50;;;;;;;;;;5090381;28;20247;-58
2022/05/28 01:01:21;;;;;;;0.30;0.30;;;;;;;;;;5086175;28;20268;-57
2022/05/28 01:04:27;;;;;;;0.60;0.60;;;;;;;;;;5085381;28;20271;-57
2022/05/28 01:07:25;;;;;;;0.37;0.37;;;;;;;;;;5081768;28;20592;-57
2022/05/28 01:10:21;;;;;;;0.27;0.27;;;;;;;;;;5085890;28;20207;-57
2022/05/28 01:13:12;;;;;;;0.30;0.30;;;;;;;;;;5081248;28;20264;-57
2022/05/28 01:16:04;;;;;;;0.30;0.30;;;;;;;;;;5089085;28;20292;-58
2022/05/28 01:18:57;;;;;;;0.30;0.23;;;;;;;;;;5086938;28;20205;-58
2022/05/28 01:21:52;;;;;;;0.40;0.40;;;;;;;;;;5086498;28;20273;-57
2022/05/28 01:24:45;;;;;;;0.20;0.20;;;;;;;;;;5088947;28;20288;-59
2022/05/28 01:27:38;;;;;;;0.40;0.40;;;;;;;;;;5091381;28;20250;-57
2022/05/28 01:30:25;;;;;;;0.33;0.33;;;;;;;;;;5089537;28;20756;-58
2022/05/28 01:33:15;;;;;;;0.40;0.40;;;;;;;;;;5091398;28;20205;-58
2022/05/28 01:36:05;;;;;;;0.30;0.30;;;;;;;;;;5083816;28;20345;-58
2022/05/28 01:38:54;;;;;;;0.20;0.20;;;;;;;;;;5086204;28;20236;-57
2022/05/28 01:41:42;;;;;;;0.30;0.30;;;;;;;;;;5080122;28;20231;-57
2022/05/28 01:44:32;;;;;;;0.30;0.30;;;;;;;;;;5082563;28;20286;-57
2022/05/28 01:47:20;;;;;;;0.40;0.40;;;;;;;;;;5086379;28;20271;-57
2022/05/28 01:50:11;;;;;;;0.37;0.37;;;;;;;;;;5089355;28;20351;-59
2022/05/28 01:53:00;;;;;;;0.30;0.30;;;;;;;;;;5093079;28;21542;-57
2022/05/28 01:55:48;;;;;;;0.40;0.40;;;;;;;;;;5094314;28;20754;-57
2022/05/28 01:58:35;;;;;;;0.30;0.30;;;;;;;;;;5094664;28;20320;-57
2022/05/28 02:01:24;;;;;;;0.40;0.40;;;;;;;;;;5093081;28;20278;-58
2022/05/28 02:04:12;;;;;;;0.30;0.30;;;;;;;;;;5099506;28;20246;-57
2022/05/28 02:06:59;;;;;;;0.30;0.30;;;;;;;;;;5101696;28;20255;-58
2022/05/28 02:09:49;;;;;;;0.30;0.30;;;;;;;;;;5085166;28;20250;-57
2022/05/28 02:12:44;;;;;;;0.40;0.40;;;;;;;;;;5086100;28;20246;-58
2022/05/28 02:15:42;;;;;;;0.53;0.40;;;;;;;;;;5086859;28;20297;-57
2022/05/28 02:18:37;;;;;;;0.50;0.30;;;;;;;;;;5087139;28;20692;-58
2022/05/28 02:21:29;;;;;;;0.50;0.40;;;;;;;;;;5087527;28;20735;-58
2022/05/28 02:24:21;;;;;;;0.40;0.40;;;;;;;;;;5088395;28;20269;-57
2022/05/28 02:27:14;;;;;;;0.30;0.30;;;;;;;;;;5091303;28;20203;-59
2022/05/28 02:30:01;;;;;;;0.30;0.30;;;;;;;;;;5095129;28;20220;-58
2022/05/28 02:32:48;;;;;;;0.20;0.20;;;;;;;;;;5091520;28;20261;-57
2022/05/28 02:35:36;;;;;;;0.30;0.30;;;;;;;;;;5095342;28;20231;-57
2022/05/28 02:38:23;;;;;;;0.70;0.30;;;;;;;;;;5093768;28;20210;-58
2022/05/28 02:41:11;;;;;;;0.20;0.20;;;;;;;;;;5095917;28;20238;-57
2022/05/28 02:43:57;;;;;;;0.20;0.20;;;;;;;;;;5087408;28;20307;-57
2022/05/28 02:46:44;;;;;;;0.93;0.43;;;;;;;;;;5087891;28;20201;-57
2022/05/28 02:49:32;;;;;;;0.50;0.40;;;;;;;;;;5093659;28;20245;-57
2022/05/28 02:52:21;;;;;;;0.30;0.30;;;;;;;;;;5086313;28;20270;-57
2022/05/28 02:55:08;;;;;;;0.20;0.20;;;;;;;;;;5089903;28;20243;-57
2022/05/28 02:57:55;;;;;;;0.43;0.30;;;;;;;;;;5082061;28;20226;-57
2022/05/28 03:00:42;;;;;;;0.20;0.20;;;;;;;;;;5091593;28;20217;-58
2022/05/28 03:03:29;;;;;;;0.30;0.30;;;;;;;;;;5084189;28;20232;-57
2022/05/28 03:06:16;;;;;;;0.30;0.30;;;;;;;;;;5092566;28;20344;-57
2022/05/28 03:09:05;;;;;;;0.20;0.20;;;;;;;;;;5094114;28;20296;-57
2022/05/28 03:11:52;;;;;;;0.40;0.40;;;;;;;;;;5092078;28;20213;-58
2022/05/28 03:14:39;;;;;;;0.40;0.30;;;;;;;;;;5096096;28;20332;-57
2022/05/28 03:17:26;;;;;;;0.30;0.30;;;;;;;;;;5094258;28;20261;-57
2022/05/28 03:20:13;;;;;;;0.70;0.33;;;;;;;;;;5084797;28;20298;-57
2022/05/28 03:23:00;;;;;;;0.30;0.30;;;;;;;;;;5087028;28;20296;-57
2022/05/28 03:25:48;;;;;;;0.40;0.40;;;;;;;;;;5082415;28;20721;-57
2022/05/28 03:28:35;;;;;;;0.30;0.30;;;;;;;;;;5089820;28;20723;-58
2022/05/28 03:31:22;;;;;;;0.30;0.30;;;;;;;;;;5091528;28;20296;-58
2022/05/28 03:34:09;;;;;;;0.47;0.40;;;;;;;;;;5092213;28;20254;-57
2022/05/28 03:36:56;;;;;;;0.30;0.30;;;;;;;;;;5090472;28;20306;-58
2022/05/28 03:39:43;;;;;;;0.30;0.30;;;;;;;;;;5093728;28;20204;-57
2022/05/28 03:42:31;;;;;;;0.40;0.40;;;;;;;;;;5090064;28;20295;-57
2022/05/28 03:45:18;;;;;;;0.30;0.30;;;;;;;;;;5094170;28;20297;-58
2022/05/28 03:48:08;;;;;;;0.40;0.40;;;;;;;;;;5090694;28;20379;-57
2022/05/28 03:50:56;;;;;;;0.63;0.40;;;;;;;;;;5093544;28;20217;-57
2022/05/28 03:53:43;;;;;;;0.30;0.30;;;;;;;;;;5081509;28;20239;-57
2022/05/28 03:56:34;;;;;;;0.30;0.30;;;;;;;;;;5087337;28;20710;-58
2022/05/28 03:59:23;;;;;;;0.23;0.23;;;;;;;;;;5085869;28;20209;-57
2022/05/28 04:02:11;;;;;;;0.30;0.30;;;;;;;;;;5093415;28;20284;-57
2022/05/28 04:04:58;;;;;;;0.30;0.30;;;;;;;;;;5094793;28;20276;-59
2022/05/28 04:07:45;;;;;;;0.30;0.30;;;;;;;;;;5085042;28;20197;-57
2022/05/28 04:10:32;;;;;;;0.30;0.30;;;;;;;;;;5095687;28;20249;-57
2022/05/28 04:13:19;;;;;;;0.30;0.30;;;;;;;;;;5084954;28;20672;-58
2022/05/28 04:16:07;;;;;;;0.20;0.20;;;;;;;;;;5094441;28;20248;-58
2022/05/28 04:18:54;;;;;;;0.40;0.30;;;;;;;;;;5087552;28;20679;-58
2022/05/28 04:21:41;;;;;;;0.33;0.33;;;;;;;;;;5092421;28;20639;-59
2022/05/28 04:24:28;;;;;;;0.30;0.30;;;;;;;;;;5090519;28;20202;-57
2022/05/28 04:27:15;;;;;;;0.40;0.40;;;;;;;;;;5086549;28;20212;-58
2022/05/28 04:30:03;;;;;;;0.27;0.27;;;;;;;;;;5088089;28;20317;-57
2022/05/28 04:32:52;;;;;;;0.30;0.30;;;;;;;;;;5081546;28;20820;-57
2022/05/28 04:35:39;;;;;;;0.20;0.20;;;;;;;;;;5089674;28;20278;-57
2022/05/28 04:38:25;;;;;;;0.30;0.30;;;;;;;;;;5091173;28;20207;-57
2022/05/28 04:41:12;;;;;;;0.20;0.20;;;;;;;;;;5085012;28;20696;-57
2022/05/28 04:43:59;;;;;;;0.53;0.30;;;;;;;;;;5085010;28;21055;-57
2022/05/28 04:46:46;;;;;;;0.63;0.40;;;;;;;;;;5091329;28;20254;-57
2022/05/28 04:49:34;;;;;;;0.30;0.30;;;;;;;;;;5094802;28;20323;-57
2022/05/28 04:52:21;;;;;;;0.30;0.30;;;;;;;;;;5091719;28;20293;-57
2022/05/28 04:55:10;;;;;;;0.30;0.30;;;;;;;;;;5094215;28;20238;-57
2022/05/28 04:57:57;;;;;;;0.40;0.40;;;;;;;;;;5094041;28;20651;-58
2022/05/28 05:00:45;;;;;;;0.30;0.30;;;;;;;;;;5092547;28;20630;-59
2022/05/28 05:03:32;;;;;;;0.40;0.40;;;;;;;;;;5088527;28;20291;-58
2022/05/28 05:06:21;;;;;;;1.27;0.33;;;;;;;;;;5086010;28;20915;-57
2022/05/28 05:09:08;;;;;;;0.30;0.30;;;;;;;;;;5083486;28;20281;-58
2022/05/28 05:11:55;;;;;;;0.40;0.40;;;;;;;;;;5087456;28;20290;-58
2022/05/28 05:14:41;;;;;;;0.20;0.20;;;;;;;;;;5089346;28;20614;-58
2022/05/28 05:17:28;;;;;;;0.47;0.20;;;;;;;;;;5089915;28;20990;-57
2022/05/28 05:20:16;;;;;;;0.20;0.20;;;;;;;;;;5086707;28;20205;-57
2022/05/28 05:23:04;;;;;;;0.37;0.37;;;;;;;;;;5095474;28;20238;-57
2022/05/28 05:25:51;;;;;;;0.30;0.30;;;;;;;;;;5083578;28;20315;-57
2022/05/28 05:28:38;;;;;;;0.40;0.40;;;;;;;;;;5088691;28;20231;-58
2022/05/28 05:31:25;;;;;;;1.17;0.20;;;;;;;;;;5099457;28;20197;-59
2022/05/28 05:34:12;;;;;;;0.20;0.20;;;;;;;;;;5092620;28;20285;-58
2022/05/28 05:36:59;;;;;;;0.57;0.43;;;;;;;;;;5090855;28;20553;-57
2022/05/28 05:39:47;;;;;;;0.20;0.20;;;;;;;;;;5083583;28;20315;-58
2022/05/28 05:42:34;;;;;;;0.47;0.47;;;;;;;;;;5091001;28;20249;-58
2022/05/28 05:45:21;;;;;;;0.30;0.30;;;;;;;;;;5089548;28;20289;-57
2022/05/28 05:48:08;;;;;;;0.30;0.30;;;;;;;;;;5094577;28;20321;-57
2022/05/28 05:50:56;;;;;;;0.20;0.20;;;;;;;;;;5089783;28;20332;-58
2022/05/28 05:53:44;;;;;;;0.30;0.30;;;;;;;;;;5091832;28;20322;-58
2022/05/28 05:56:32;;;;;;;0.20;0.20;;;;;;;;;;5098253;28;20692;-57
2022/05/28 05:59:19;;;;;;;0.30;0.30;;;;;;;;;;5101956;28;20210;-57
2022/05/28 06:02:07;;;;;;;0.20;0.20;;;;;;;;;;5091354;28;20277;-57
2022/05/28 06:04:54;;;;;;;0.17;0.17;;;;;;;;;;5093436;28;20793;-57
2022/05/28 06:07:41;;;;;;;0.60;0.23;;;;;;;;;;5091409;28;20213;-58
2022/05/28 06:10:28;;;;;;;0.30;0.30;;;;;;;;;;5086713;28;20278;-57
2022/05/28 06:13:16;;;;;;;0.30;0.30;;;;;;;;;;5090385;28;20213;-58
2022/05/28 06:16:04;;;;;;;0.40;0.40;;;;;;;;;;5091960;28;20249;-57
2022/05/28 06:18:51;;;;;;;0.30;0.30;;;;;;;;;;5085491;28;20246;-58
2022/05/28 06:21:38;;;;;;;0.47;0.47;;;;;;;;;;5092737;28;20255;-57
2022/05/28 06:24:25;;;;;;;0.40;0.40;;;;;;;;;;5093420;28;20680;-57
2022/05/28 06:27:12;;;;;;;0.40;0.40;;;;;;;;;;5095254;28;20313;-57
2022/05/28 06:30:00;;;;;;;0.50;0.50;;;;;;;;;;5091824;28;20282;-58
2022/05/28 06:32:47;;;;;;;0.87;0.43;;;;;;;;;;5088931;28;20220;-58
2022/05/28 06:35:34;;;;;;;0.40;0.40;;;;;;;;;;5089014;28;20288;-57
2022/05/28 06:38:21;;;;;;;0.30;0.30;;;;;;;;;;5091840;28;20680;-58
2022/05/28 06:41:08;;;;;;;0.50;0.50;;;;;;;;;;5094913;28;20295;-57
2022/05/28 06:43:55;;;;;;;0.50;0.50;;;;;;;;;;5086523;28;20264;-57
2022/05/28 06:46:44;;;;;;;0.40;0.40;;;;;;;;;;5086210;28;20264;-57
2022/05/28 06:49:31;;;;;;;0.40;0.40;;;;;;;;;;5084913;28;20278;-57
2022/05/28 06:52:17;;;;;;;0.30;0.30;;;;;;;;;;5088280;28;20253;-58
2022/05/28 06:55:06;;;;;;;0.73;0.67;;;;;;;;;;5087129;28;20199;-57
2022/05/28 06:57:53;;;;;;;0.27;0.27;;;;;;;;;;5088962;28;20279;-57
2022/05/28 07:00:40;;;;;;;0.30;0.30;;;;;;;;;;5095205;28;20318;-57
2022/05/28 07:03:30;;;;;;;0.30;0.30;;;;;;;;;;5094709;28;20236;-57
2022/05/28 07:06:17;;;;;;;0.30;0.30;;;;;;;;;;5094248;28;20224;-57
2022/05/28 07:09:06;;;;;;;0.13;0.13;;;;;;;;;;5093559;28;20230;-58
2022/05/28 07:11:53;;;;;;;0.20;0.20;;;;;;;;;;5096119;28;20204;-58
2022/05/28 07:14:39;;;;;;;0.17;0.17;;;;;;;;;;5094433;28;20257;-57
2022/05/28 07:17:26;;;;;;;0.30;0.30;;;;;;;;;;5087131;28;20344;-57
2022/05/28 07:20:15;;;;;;;0.40;0.25;;;;;;;;;;5082558;28;20331;-56
2022/05/28 07:23:08;;;;;;;0.20;0.20;;;;;;;;;;5080424;28;20209;-56
2022/05/28 07:25:59;;;;;;;0.10;0.10;;;;;;;;;;5089348;28;20327;-56
2022/05/28 07:28:46;;;;;;;0.20;0.20;;;;;;;;;;5088438;28;20206;-55
2022/05/28 07:31:33;;;;;;;0.25;0.25;;;;;;;;;;5086795;28;20194;-56
2022/05/28 07:34:20;;;;;;;0.30;0.30;;;;;;;;;;5084706;28;20214;-55
2022/05/28 07:37:08;;;;;;;0.30;0.30;;;;;;;;;;5091527;28;20236;-55
2022/05/28 07:39:55;;;;;;;1.17;0.10;;;;;;;;;;5096480;28;20199;-55
2022/05/28 07:42:42;;;;;;;0.15;0.15;;;;;;;;;;5092012;28;20309;-55
2022/05/28 07:45:30;;;;;;;0.20;0.20;;;;;;;;;;5090373;28;20281;-55
2022/05/28 07:48:17;;;;;;;0.20;0.20;;;;;;;;;;5093265;28;20316;-55
2022/05/28 07:51:04;;;;;;;0.20;0.20;;;;;;;;;;5086797;28;20285;-55
2022/05/28 07:53:53;;;;;;;0.10;0.10;;;;;;;;;;5079248;28;20273;-56
2022/05/28 07:56:40;;;;;;;0.10;0.10;;;;;;;;;;5083648;28;20682;-57
2022/05/28 07:59:27;;;;;;;0.20;0.20;;;;;;;;;;5085777;28;20230;-56
2022/05/28 08:02:14;;;;;;;0.20;0.20;;;;;;;;;;5087957;28;20209;-57
2022/05/28 08:05:01;;;;;;;0.30;0.30;;;;;;;;;;5088664;28;20268;-57
2022/05/28 08:07:47;;;;;;;0.10;0.10;;;;;;;;;;5085539;28;20343;-56
2022/05/28 08:10:36;;;;;;;0.30;0.30;;;;;;;;;;5085694;28;20203;-56
2022/05/28 08:13:24;;;;;;;0.15;0.15;;;;;;;;;;5087665;28;20304;-56
2022/05/28 08:16:11;;;;;;;0.17;0.13;;;;;;;;;;5094877;28;20382;-57
2022/05/28 08:18:59;;;;;;;0.10;0.10;;;;;;;;;;5091251;28;20233;-56
2022/05/28 08:24:50;;;;;;;0.10;0.10;;;;;;;;;;5096506;28;20210;-57
2022/05/28 08:27:38;;;;;;;0.00;0.00;;;;;;;;;;5081164;28;20270;-56
2022/05/28 08:30:25;;;;;;;0.17;0.15;;;;;;;;;;5084764;28;20237;-56
2022/05/28 08:33:14;;;;;;;0.15;0.15;;;;;;;;;;5086804;28;20367;-56
2022/05/28 08:36:01;;;;;;;0.28;0.25;;;;;;;;;;5082415;28;20198;-56
2022/05/28 08:38:48;;;;;;;0.10;0.10;;;;;;;;;;5087571;28;20768;-55
2022/05/28 08:41:43;;;;;;;0.15;0.10;;;;;;;;;;5086322;28;20915;-56
2022/05/28 08:44:33;;;;;;;0.30;0.30;;;;;;;;;;5089358;28;20250;-56
2022/05/28 08:47:24;;;;;;;0.00;0.00;;;;;;;;;;5089875;28;20324;-57
2022/05/28 08:50:11;;;;;;;0.20;0.20;;;;;;;;;;5090635;28;20212;-57
2022/05/28 08:53:05;;;;;;;0.10;0.10;;;;;;;;;;5094777;28;20699;-56
2022/05/28 08:55:53;;;;;;;0.10;0.10;;;;;;;;;;5089161;28;20224;-56
2022/05/28 08:58:42;;;;;;;0.13;0.13;;;;;;;;;;5085794;28;20215;-57
2022/05/28 09:01:32;;;;;;;0.20;0.20;;;;;;;;;;5086463;28;20604;-57
2022/05/28 09:04:23;;;;;;;0.30;0.30;;;;;;;;;;5088093;28;20809;-56
2022/05/28 09:07:13;;;;;;;0.20;0.20;;;;;;;;;;5090793;28;20340;-56
2022/05/28 09:10:01;;;;;;;0.25;0.10;;;;;;;;;;5093068;28;20331;-56
2022/05/28 09:12:54;;;;;;;0.22;0.15;;;;;;;;;;5094017;28;20236;-56
2022/05/28 09:15:43;;;;;;;0.20;0.10;;;;;;;;;;5094704;28;20572;-56
2022/05/28 09:18:35;;;;;;;0.10;0.10;;;;;;;;;;5091853;28;20253;-56
2022/05/28 09:21:22;;;;;;;0.17;0.17;;;;;;;;;;5096382;28;20210;-57
2022/05/28 09:24:15;;;;;;;0.20;0.20;;;;;;;;;;5101270;28;20289;-56
2022/05/28 09:27:06;;;;;;;0.20;0.20;;;;;;;;;;5095042;28;20750;-57
2022/05/28 09:30:09;;;;;;;1.98;0.20;;;;;;;;;;5095629;28;20201;-57
2022/05/28 09:33:10;;;;;;;0.20;0.20;;;;;;;;;;5097308;28;20293;-56
2022/05/28 09:36:08;;;;;;;0.30;0.30;;;;;;;;;;5093894;28;20207;-56
2022/05/28 09:39:06;;;;;;;0.43;0.43;;;;;;;;;;5086134;28;20667;-57
2022/05/28 09:42:02;;;;;;;0.22;0.22;;;;;;;;;;5095186;28;20210;-56
2022/05/28 09:45:02;;;;;;;0.63;0.30;;;;;;;;;;5094291;28;20260;-56
2022/05/28 09:47:51;;;;;;;0.10;0.10;;;;;;;;;;5082947;28;21013;-56
2022/05/28 09:50:41;;;;;;;0.28;0.28;;;;;;;;;;5096823;28;20266;-56
2022/05/28 09:56:47;;;;;;;0.20;0.20;;;;;;;;;;5095005;28;20203;-56
2022/05/28 09:59:37;;;;;;;0.30;0.30;;;;;;;;;;5101062;28;20240;-56
2022/05/28 10:02:27;;;;;;;0.20;0.20;;;;;;;;;;5099733;28;20216;-56
2022/05/28 10:05:16;;;;;;;0.30;0.30;;;;;;;;;;5098695;28;20681;-57
2022/05/28 10:08:10;;;;;;;0.60;0.60;;;;;;;;;;5093889;28;20218;-57
2022/05/28 10:11:02;;;;;;;0.50;0.50;;;;;;;;;;5088172;28;20298;-56
2022/05/28 10:13:52;;;;;;;0.80;0.80;;;;;;;;;;5084735;28;20266;-56
2022/05/28 10:16:41;;;;;;;0.63;0.63;;;;;;;;;;5088269;28;20815;-57
2022/05/28 10:19:32;;;;;;;0.63;0.63;;;;;;;;;;5088641;28;20283;-57
2022/05/28 10:22:21;;;;;;;0.60;0.60;;;;;;;;;;5086760;28;20278;-56
2022/05/28 10:25:25;;;;;;;0.80;0.80;;;;;;;;;;5089990;28;20819;-56
2022/05/28 10:28:13;;;;;;;0.75;0.75;;;;;;;;;;5098369;28;20305;-57
2022/05/28 10:31:00;;;;;;;1.05;0.90;;;;;;;;;;5093995;28;20297;-56
2022/05/28 10:33:48;;;;;;;0.68;0.68;;;;;;;;;;5093283;28;20680;-56
2022/05/28 10:36:36;;;;;;;0.82;0.82;;;;;;;;;;5087539;28;20208;-56
2022/05/28 10:39:23;;;;;;;0.80;0.80;;;;;;;;;;5099814;28;20212;-57
2022/05/28 10:42:12;;;;;;;0.70;0.70;;;;;;;;;;5096223;28;20291;-58
2022/05/28 10:45:01;;;;;;;0.90;0.90;;;;;;;;;;5085175;28;20963;-56
2022/05/28 10:48:11;;;;;;;0.80;0.80;;;;;;;;;;5083835;28;20692;-57
2022/05/28 10:51:10;;;;;;;0.80;0.73;;;;;;;;;;5087924;28;20312;-56
2022/05/28 10:54:13;;;;;;;0.50;0.50;;;;;;;;;;5084598;28;20323;-56
2022/05/28 10:57:08;;;;;;;0.80;0.80;;;;;;;;;;5089307;28;20239;-56
2022/05/28 11:00:07;;;;;;;0.77;0.67;;;;;;;;;;5093625;28;20231;-57
2022/05/28 11:03:42;;;;;;;1.00;0.90;;;;;;;;;;5090846;27;20324;-56
2022/05/28 11:06:58;;;;;;;0.60;0.60;;;;;;;;;;5095278;28;20682;-56
2022/05/28 11:09:58;;;;;;;1.50;0.67;;;;;;;;;;5093392;28;20262;-56
2022/05/28 11:13:08;;;;;;;1.17;0.50;;;;;;;;;;5093366;28;20246;-57
2022/05/28 11:16:16;;;;;;;0.40;0.40;;;;;;;;;;5081462;28;20296;-56
2022/05/28 11:19:14;;;;;;;0.40;0.40;;;;;;;;;;5085344;28;20619;-56
2022/05/28 11:22:16;;;;;;;0.70;0.70;;;;;;;;;;5088289;28;20223;-56
2022/05/28 11:25:10;;;;;;;0.90;0.63;;;;;;;;;;5089989;28;20212;-56
2022/05/28 11:28:09;;;;;;;0.60;0.60;;;;;;;;;;5093664;28;20358;-56
2022/05/28 11:31:00;;;;;;;0.50;0.50;;;;;;;;;;5081669;28;20283;-56
2022/05/28 11:33:52;;;;;;;0.43;0.43;;;;;;;;;;5090918;28;20293;-56
2022/05/28 11:36:43;;;;;;;0.60;0.60;;;;;;;;;;5092058;28;20207;-56
2022/05/28 11:39:39;;;;;;;0.57;0.57;;;;;;;;;;5091047;28;20293;-55
2022/05/28 11:42:34;;;;;;;0.60;0.60;;;;;;;;;;5093693;28;20276;-57
2022/05/28 11:45:25;;;;;;;0.30;0.30;;;;;;;;;;5093224;28;20322;-56
2022/05/28 11:48:18;;;;;;;0.40;0.40;;;;;;;;;;5089267;28;20269;-56
2022/05/28 11:51:29;;;;;;;0.30;0.30;;;;;;;;;;5096900;28;20753;-57
2022/05/28 11:54:23;;;;;;;0.40;0.40;;;;;;;;;;5085958;28;20283;-56
2022/05/28 11:57:22;;;;;;;0.40;0.40;;;;;;;;;;5085457;28;20206;-56
2022/05/28 12:00:12;;;;;;;0.30;0.30;;;;;;;;;;5093363;28;20203;-56
2022/05/28 12:03:03;;;;;;;0.33;0.33;;;;;;;;;;5089970;28;20400;-56
2022/05/28 12:05:52;;;;;;;0.30;0.30;;;;;;;;;;5092459;28;20691;-56
2022/05/28 12:08:43;;;;;;;1.33;0.40;;;;;;;;;;5088828;28;20257;-56
2022/05/28 12:11:40;;;;;;;0.30;0.30;;;;;;;;;;5092353;28;20746;-56
2022/05/28 12:14:31;;;;;;;0.43;0.40;;;;;;;;;;5089039;28;20205;-56
2022/05/28 12:17:26;;;;;;;0.30;0.30;;;;;;;;;;5093442;28;20200;-56
2022/05/28 12:20:14;;;;;;;0.30;0.30;;;;;;;;;;5094844;28;20228;-56
2022/05/28 12:23:03;;;;;;;0.23;0.23;;;;;;;;;;5088166;28;20671;-56
2022/05/28 12:25:52;;;;;;;0.40;0.40;;;;;;;;;;5089890;28;20193;-56
2022/05/28 12:28:44;;;;;;;0.33;0.33;;;;;;;;;;5087598;28;20248;-56
2022/05/28 12:31:31;;;;;;;0.50;0.50;;;;;;;;;;5090067;28;20685;-56
2022/05/28 12:34:22;;;;;;;0.20;0.20;;;;;;;;;;5090226;28;20284;-56
2022/05/28 12:37:19;;;;;;;0.30;0.30;;;;;;;;;;5089939;28;20196;-56
2022/05/28 12:40:27;;;;;;;0.30;0.30;;;;;;;;;;5088225;28;20738;-57
2022/05/28 12:43:18;;;;;;;0.23;0.23;;;;;;;;;;5090919;28;20294;-57
2022/05/28 12:46:17;;;;;;;0.20;0.20;;;;;;;;;;5090282;28;20287;-56
2022/05/28 12:49:07;;;;;;;0.27;0.27;;;;;;;;;;5090990;28;20309;-57
2022/05/28 12:52:27;;;;;;;0.50;0.50;;;;;;;;;;5095465;28;20203;-56
2022/05/28 12:55:31;;;;;;;0.30;0.30;;;;;;;;;;5093361;28;20214;-57
2022/05/28 12:58:30;;;;;;;0.30;0.30;;;;;;;;;;5091318;28;20554;-57
2022/05/28 13:01:22;;;;;;;0.30;0.30;;;;;;;;;;5082253;28;20288;-56
2022/05/28 13:04:16;;;;;;;0.20;0.20;;;;;;;;;;5085227;28;20562;-57
2022/05/28 13:07:06;;;;;;;0.30;0.30;;;;;;;;;;5090332;28;20656;-56
2022/05/28 13:10:02;;;;;;;0.20;0.20;;;;;;;;;;5087035;28;20318;-57
2022/05/28 13:12:56;;;;;;;0.10;0.10;;;;;;;;;;5084879;28;20670;-57
2022/05/28 13:16:10;;;;;;;0.20;0.20;;;;;;;;;;5088089;28;20287;-57
2022/05/28 13:19:14;;;;;;;0.20;0.20;;;;;;;;;;5092849;28;20278;-57
2022/05/28 13:22:09;;;;;;;0.30;0.30;;;;;;;;;;5085411;28;20214;-57
2022/05/28 13:25:13;;;;;;;0.17;0.17;;;;;;;;;;5090490;28;20668;-57
2022/05/28 13:28:20;;;;;;;0.20;0.20;;;;;;;;;;5093324;28;20361;-57
2022/05/28 13:31:11;;;;;;;0.20;0.20;;;;;;;;;;5097778;28;20294;-58
2022/05/28 13:33:58;;;;;;;0.27;0.27;;;;;;;;;;5086126;28;20249;-57
2022/05/28 13:36:45;;;;;;;0.27;0.27;;;;;;;;;;5083649;28;20295;-57
2022/05/28 13:39:33;;;;;;;0.63;0.47;;;;;;;;;;5080474;28;20340;-57
2022/05/28 13:42:20;;;;;;;0.30;0.30;;;;;;;;;;5084912;28;20252;-57
2022/05/28 13:45:09;;;;;;;0.87;0.30;;;;;;;;;;5077116;28;20309;-57
2022/05/28 13:48:04;;;;;;;0.30;0.30;;;;;;;;;;5084334;28;20252;-58
2022/05/28 13:50:54;;;;;;;0.30;0.30;;;;;;;;;;5090561;28;21137;-58
2022/05/28 13:53:44;;;;;;;0.10;0.10;;;;;;;;;;5093187;28;20309;-57
2022/05/28 13:56:32;;;;;;;0.20;0.20;;;;;;;;;;5095671;28;20289;-58
2022/05/28 13:59:32;;;;;;;0.20;0.20;;;;;;;;;;5094939;28;20240;-57
2022/05/28 14:02:23;;;;;;;0.20;0.20;;;;;;;;;;5092779;28;20284;-58
2022/05/28 14:05:12;;;;;;;0.20;0.20;;;;;;;;;;5095451;28;20264;-57
2022/05/28 14:08:04;;;;;;;0.30;0.30;;;;;;;;;;5093012;28;20298;-57
2022/05/28 14:10:53;;;;;;;0.20;0.20;;;;;;;;;;5090428;28;20859;-57
2022/05/28 14:13:45;;;;;;;0.23;0.23;;;;;;;;;;5085963;28;20231;-57
2022/05/28 14:16:37;;;;;;;0.27;0.27;;;;;;;;;;5089574;28;20204;-57
2022/05/28 14:19:27;;;;;;;0.37;0.37;;;;;;;;;;5091855;28;20300;-58
2022/05/28 14:22:23;;;;;;;1.50;0.30;;;;;;;;;;5091876;28;20292;-57
2022/05/28 14:25:14;;;;;;;1.07;0.20;;;;;;;;;;5091043;28;20204;-57
2022/05/28 14:28:05;;;;;;;0.37;0.20;;;;;;;;;;5089359;28;20710;-57
2022/05/28 14:30:53;;;;;;;0.30;0.30;;;;;;;;;;5092507;28;20665;-57
2022/05/28 14:33:43;;;;;;;0.20;0.20;;;;;;;;;;5091920;28;20231;-58
2022/05/28 14:36:34;;;;;;;0.40;0.40;;;;;;;;;;5098415;28;20327;-57
2022/05/28 14:39:23;;;;;;;0.23;0.23;;;;;;;;;;5091660;28;20200;-56
2022/05/28 14:42:13;;;;;;;1.03;0.50;;;;;;;;;;5086011;28;20334;-57
2022/05/28 14:45:01;;;;;;;0.30;0.30;;;;;;;;;;5081622;28;20725;-57
2022/05/28 14:47:51;;;;;;;1.17;0.50;;;;;;;;;;5087020;28;20228;-57
2022/05/28 14:50:44;;;;;;;0.30;0.30;;;;;;;;;;5089760;28;20577;-57
2022/05/28 14:53:34;;;;;;;0.30;0.30;;;;;;;;;;5083933;28;20231;-57
2022/05/28 14:56:26;;;;;;;0.30;0.30;;;;;;;;;;5088856;28;20209;-57
2022/05/28 14:59:21;;;;;;;0.40;0.40;;;;;;;;;;5087125;28;20245;-57
2022/05/28 15:02:19;;;;;;;0.30;0.30;;;;;;;;;;5092238;28;20293;-57
2022/05/28 15:05:10;;;;;;;0.27;0.27;;;;;;;;;;5091389;28;20637;-57
2022/05/28 15:08:00;;;;;;;0.43;0.30;;;;;;;;;;5087582;28;20356;-57
2022/05/28 15:10:50;;;;;;;0.20;0.20;;;;;;;;;;5085954;28;20189;-57
2022/05/28 15:13:38;;;;;;;0.27;0.27;;;;;;;;;;5088902;28;20253;-57
2022/05/28 15:16:25;;;;;;;0.30;0.30;;;;;;;;;;5096663;28;20730;-57
2022/05/28 15:19:12;;;;;;;0.20;0.20;;;;;;;;;;5090244;28;20254;-57
2022/05/28 15:22:08;;;;;;;0.30;0.30;;;;;;;;;;5084747;28;20266;-58
2022/05/28 15:24:56;;;;;;;0.40;0.23;;;;;;;;;;5088643;28;20229;-56
2022/05/28 15:27:42;;;;;;;0.30;0.30;;;;;;;;;;5087686;28;20211;-57
2022/05/28 15:30:31;;;;;;;0.30;0.30;;;;;;;;;;5090185;28;20281;-58
2022/05/28 15:33:22;;;;;;;0.47;0.47;;;;;;;;;;5094151;28;20294;-57
2022/05/28 15:39:14;;;;;;;0.40;0.40;;;;;;;;;;5092299;28;20201;-57
2022/05/28 15:42:01;;;;;;;0.20;0.20;;;;;;;;;;5092419;28;20339;-57
2022/05/28 15:44:50;;;;;;;0.30;0.30;;;;;;;;;;5094842;28;20242;-58
2022/05/28 15:47:38;;;;;;;0.27;0.27;;;;;;;;;;5099364;28;20207;-58
2022/05/28 15:50:27;;;;;;;0.30;0.30;;;;;;;;;;5096219;28;20259;-58
2022/05/28 15:53:14;;;;;;;0.30;0.30;;;;;;;;;;5087129;28;20797;-57
2022/05/28 15:56:03;;;;;;;0.30;0.30;;;;;;;;;;5090668;28;20742;-58
2022/05/28 15:58:50;;;;;;;0.57;0.30;;;;;;;;;;5079867;28;20326;-58
2022/05/28 16:01:40;;;;;;;0.30;0.30;;;;;;;;;;5093110;28;20207;-58
2022/05/28 16:04:28;;;;;;;0.23;0.23;;;;;;;;;;5089308;28;20208;-57
2022/05/28 16:07:16;;;;;;;0.37;0.37;;;;;;;;;;5088526;28;20255;-58
2022/05/28 16:10:03;;;;;;;0.40;0.40;;;;;;;;;;5090965;28;20306;-57
2022/05/28 16:12:51;;;;;;;0.20;0.20;;;;;;;;;;5091939;28;20693;-58
2022/05/28 16:15:38;;;;;;;0.30;0.30;;;;;;;;;;5092040;28;20280;-58
2022/05/28 16:18:25;;;;;;;0.57;0.30;;;;;;;;;;5094875;28;20283;-58
2022/05/28 16:21:14;;;;;;;0.33;0.33;;;;;;;;;;5094540;28;20730;-57
2022/05/28 16:24:01;;;;;;;0.40;0.40;;;;;;;;;;5096567;28;20287;-57
2022/05/28 16:26:48;;;;;;;0.37;0.37;;;;;;;;;;5080473;28;20341;-57
2022/05/28 16:29:35;;;;;;;0.30;0.30;;;;;;;;;;5081983;28;20275;-57
2022/05/28 16:32:22;;;;;;;0.30;0.30;;;;;;;;;;5083213;28;20286;-57
2022/05/28 16:35:10;;;;;;;0.40;0.40;;;;;;;;;;5087318;28;20664;-57
2022/05/28 16:37:58;;;;;;;0.53;0.40;;;;;;;;;;5087818;28;20215;-57
2022/05/28 16:40:45;;;;;;;0.30;0.30;;;;;;;;;;5085976;28;20584;-57
2022/05/28 16:43:33;;;;;;;0.30;0.30;;;;;;;;;;5091586;28;20625;-58
2022/05/28 16:46:20;;;;;;;0.70;0.40;;;;;;;;;;5087119;28;20280;-58
2022/05/28 16:49:07;;;;;;;0.20;0.20;;;;;;;;;;5091396;28;20318;-57
2022/05/28 16:51:54;;;;;;;0.33;0.33;;;;;;;;;;5089197;28;20319;-57
2022/05/28 16:54:42;;;;;;;0.30;0.30;;;;;;;;;;5097703;28;20242;-58
2022/05/28 16:57:29;;;;;;;0.23;0.20;;;;;;;;;;5083862;28;20574;-58
2022/05/28 17:00:17;;;;;;;0.27;0.27;;;;;;;;;;5087107;28;20285;-58
2022/05/28 17:03:05;;;;;;;0.40;0.40;;;;;;;;;;5085210;28;20272;-57
2022/05/28 17:05:51;;;;;;;0.30;0.30;;;;;;;;;;5083648;28;20357;-59
2022/05/28 17:08:38;;;;;;;0.33;0.33;;;;;;;;;;5087215;28;20268;-58
2022/05/28 17:11:29;;;;;;;0.30;0.30;;;;;;;;;;5082958;28;20251;-57